Time;durP1;ratioP1;P1;durP2;ratioP2;P2;SDS_P1;SDS_P2;PMS_P1;PMS_P2;Temp;Humidity;BMP_temperature;BMP_pressure;BME280_temperature;BME280_humidity;BME280_pressure;Samples;Min_cycle;Max_cycle;Signal;HPM_P1;HPM_P2
2021/04/18 00:02:08;;;;;;;13.43;12.23;;;;;;;;;;5003117;28;20176;-53
2021/04/18 00:04:33;;;;;;;13.13;11.93;;;;;;;;;;4999068;28;20189;-47
2021/04/18 00:06:59;;;;;;;13.63;12.50;;;;;;;;;;5008067;28;20694;-47
2021/04/18 00:09:24;;;;;;;13.33;12.13;;;;;;;;;;5007328;28;20179;-46
2021/04/18 00:11:49;;;;;;;13.80;12.47;;;;;;;;;;5007525;28;20183;-46
2021/04/18 00:14:14;;;;;;;13.10;11.85;;;;;;;;;;5006926;28;20221;-47
2021/04/18 00:16:39;;;;;;;13.57;12.17;;;;;;;;;;5005499;28;20297;-47
2021/04/18 00:19:05;;;;;;;13.20;11.90;;;;;;;;;;5008645;28;20185;-48
2021/04/18 00:21:30;;;;;;;12.67;11.67;;;;;;;;;;5010945;28;20770;-47
2021/04/18 00:23:56;;;;;;;12.83;11.70;;;;;;;;;;5009912;28;20655;-46
2021/04/18 00:26:21;;;;;;;14.90;13.50;;;;;;;;;;5010368;28;20180;-47
2021/04/18 00:28:46;;;;;;;13.60;12.40;;;;;;;;;;5008863;28;20655;-47
2021/04/18 00:31:11;;;;;;;13.33;12.13;;;;;;;;;;5011250;28;20271;-47
2021/04/18 00:33:37;;;;;;;13.83;12.53;;;;;;;;;;5000251;28;20233;-47
2021/04/18 00:36:04;;;;;;;13.60;12.30;;;;;;;;;;5011103;28;20238;-48
2021/04/18 00:38:29;;;;;;;13.57;12.37;;;;;;;;;;5010684;28;20188;-47
2021/04/18 00:40:54;;;;;;;13.03;11.93;;;;;;;;;;5010627;28;20599;-46
2021/04/18 00:43:19;;;;;;;14.23;12.90;;;;;;;;;;5007862;28;20172;-47
2021/04/18 00:45:44;;;;;;;13.20;12.00;;;;;;;;;;5010689;28;20628;-47
2021/04/18 00:48:10;;;;;;;14.55;13.10;;;;;;;;;;5009860;28;20263;-47
2021/04/18 00:50:36;;;;;;;14.73;13.30;;;;;;;;;;5009998;28;20191;-47
2021/04/18 00:53:06;;;;;;;14.47;13.23;;;;;;;;;;5010349;28;20212;-47
2021/04/18 00:55:32;;;;;;;15.20;13.70;;;;;;;;;;5008738;28;21038;-46
2021/04/18 00:57:58;;;;;;;14.40;13.20;;;;;;;;;;5007221;28;20618;-47
2021/04/18 01:00:24;;;;;;;15.17;13.67;;;;;;;;;;5004655;28;21174;-47
2021/04/18 01:02:49;;;;;;;14.73;13.27;;;;;;;;;;5010335;28;20204;-48
2021/04/18 01:05:14;;;;;;;13.90;12.80;;;;;;;;;;5009011;28;20232;-47
2021/04/18 01:07:39;;;;;;;13.87;12.60;;;;;;;;;;5010166;28;20623;-47
2021/04/18 01:10:06;;;;;;;13.80;12.57;;;;;;;;;;5002346;28;20236;-47
2021/04/18 01:12:32;;;;;;;14.60;13.30;;;;;;;;;;5009266;28;20204;-47
2021/04/18 01:14:57;;;;;;;14.73;13.43;;;;;;;;;;5009247;28;21022;-47
2021/04/18 01:17:22;;;;;;;15.80;14.30;;;;;;;;;;5010240;28;20229;-47
2021/04/18 01:19:48;;;;;;;14.33;12.93;;;;;;;;;;5008992;28;20181;-47
2021/04/18 01:22:13;;;;;;;16.13;14.30;;;;;;;;;;5009270;28;20205;-47
2021/04/18 01:24:39;;;;;;;14.52;13.13;;;;;;;;;;5010240;28;20247;-47
2021/04/18 01:27:05;;;;;;;15.87;14.47;;;;;;;;;;5005478;28;20180;-47
2021/04/18 01:29:30;;;;;;;14.77;13.47;;;;;;;;;;5007679;28;20211;-47
2021/04/18 01:31:55;;;;;;;16.87;14.23;;;;;;;;;;5003191;28;20690;-47
2021/04/18 01:34:21;;;;;;;15.47;14.07;;;;;;;;;;5006418;28;20284;-47
2021/04/18 01:36:46;;;;;;;14.33;13.13;;;;;;;;;;5007368;28;20674;-47
2021/04/18 01:39:12;;;;;;;15.40;14.00;;;;;;;;;;5007163;28;20180;-47
2021/04/18 01:41:38;;;;;;;15.73;14.10;;;;;;;;;;5009041;28;20245;-47
2021/04/18 01:44:04;;;;;;;16.07;14.57;;;;;;;;;;5007487;28;20739;-47
2021/04/18 01:46:29;;;;;;;15.80;14.30;;;;;;;;;;5009958;28;20177;-47
2021/04/18 01:48:54;;;;;;;16.30;14.70;;;;;;;;;;5007296;28;20589;-47
2021/04/18 01:51:19;;;;;;;15.95;14.40;;;;;;;;;;5006985;28;20193;-47
2021/04/18 01:53:45;;;;;;;15.70;14.23;;;;;;;;;;5009069;28;20199;-47
2021/04/18 01:56:10;;;;;;;14.40;13.07;;;;;;;;;;5008273;28;20185;-47
2021/04/18 01:58:35;;;;;;;15.37;13.73;;;;;;;;;;5002540;28;20208;-48
2021/04/18 02:01:00;;;;;;;16.27;14.87;;;;;;;;;;5004622;28;20177;-48
2021/04/18 02:03:26;;;;;;;15.80;14.20;;;;;;;;;;5009813;28;20639;-47
2021/04/18 02:05:51;;;;;;;15.57;14.27;;;;;;;;;;5009132;28;20184;-47
2021/04/18 02:08:16;;;;;;;16.47;14.87;;;;;;;;;;5009075;28;20172;-47
2021/04/18 02:10:41;;;;;;;15.73;14.33;;;;;;;;;;5007165;28;20176;-47
2021/04/18 02:13:06;;;;;;;15.73;14.27;;;;;;;;;;5007395;28;20552;-47
2021/04/18 02:15:31;;;;;;;17.13;15.53;;;;;;;;;;5007754;28;20456;-47
2021/04/18 02:17:57;;;;;;;16.63;15.13;;;;;;;;;;5008555;28;20866;-48
2021/04/18 02:20:22;;;;;;;16.17;14.63;;;;;;;;;;5009755;28;20214;-48
2021/04/18 02:22:47;;;;;;;16.37;14.80;;;;;;;;;;5006611;28;20566;-48
2021/04/18 02:25:12;;;;;;;16.05;14.55;;;;;;;;;;5007408;28;20192;-48
2021/04/18 02:27:38;;;;;;;15.23;14.00;;;;;;;;;;5000777;28;20178;-47
2021/04/18 02:30:03;;;;;;;16.50;14.87;;;;;;;;;;5008008;28;20193;-51
2021/04/18 02:32:28;;;;;;;15.80;14.40;;;;;;;;;;5009236;28;20185;-48
2021/04/18 02:34:53;;;;;;;17.63;16.08;;;;;;;;;;5008508;28;20207;-48
2021/04/18 02:37:19;;;;;;;16.95;15.30;;;;;;;;;;5005507;28;20180;-47
2021/04/18 02:39:44;;;;;;;16.27;14.77;;;;;;;;;;5005000;28;20172;-47
2021/04/18 02:42:09;;;;;;;16.07;14.57;;;;;;;;;;5007209;28;20181;-47
2021/04/18 02:44:34;;;;;;;17.13;14.63;;;;;;;;;;5004479;28;20182;-47
2021/04/18 02:46:59;;;;;;;16.60;15.10;;;;;;;;;;5009119;28;20646;-47
2021/04/18 02:49:25;;;;;;;16.23;14.73;;;;;;;;;;5001913;28;20185;-47
2021/04/18 02:51:50;;;;;;;17.53;15.83;;;;;;;;;;5008204;28;20182;-47
2021/04/18 02:54:15;;;;;;;18.73;16.43;;;;;;;;;;5008815;28;20625;-47
2021/04/18 02:56:40;;;;;;;16.58;15.07;;;;;;;;;;5007763;28;20242;-47
2021/04/18 02:59:05;;;;;;;17.90;16.30;;;;;;;;;;5007028;28;20260;-47
2021/04/18 03:01:31;;;;;;;16.80;15.20;;;;;;;;;;5008032;28;20272;-48
2021/04/18 03:03:56;;;;;;;17.43;15.97;;;;;;;;;;5003976;28;20249;-47
2021/04/18 03:06:21;;;;;;;16.53;15.07;;;;;;;;;;5000673;28;20271;-48
2021/04/18 03:08:46;;;;;;;17.30;15.70;;;;;;;;;;5008402;28;20194;-48
2021/04/18 03:11:12;;;;;;;16.97;15.30;;;;;;;;;;5005704;28;20640;-47
2021/04/18 03:13:37;;;;;;;17.27;15.57;;;;;;;;;;5007786;28;20308;-48
2021/04/18 03:16:03;;;;;;;16.47;14.97;;;;;;;;;;5007632;28;20232;-46
2021/04/18 03:18:28;;;;;;;15.67;14.20;;;;;;;;;;5009025;28;20593;-46
2021/04/18 03:20:53;;;;;;;17.73;16.02;;;;;;;;;;5007437;28;20170;-46
2021/04/18 03:23:18;;;;;;;17.40;15.70;;;;;;;;;;4995671;28;20192;-48
2021/04/18 03:25:43;;;;;;;16.40;14.80;;;;;;;;;;5006664;28;20188;-46
2021/04/18 03:28:08;;;;;;;16.57;15.00;;;;;;;;;;5005512;28;20576;-46
2021/04/18 03:30:35;;;;;;;16.13;14.50;;;;;;;;;;5006242;28;20250;-47
2021/04/18 03:33:00;;;;;;;15.40;14.00;;;;;;;;;;5007934;28;20179;-47
2021/04/18 03:35:25;;;;;;;15.70;14.30;;;;;;;;;;5007729;28;20720;-47
2021/04/18 03:37:50;;;;;;;15.90;14.43;;;;;;;;;;5003103;28;20512;-47
2021/04/18 03:40:16;;;;;;;14.63;13.18;;;;;;;;;;5000154;28;20178;-46
2021/04/18 03:42:41;;;;;;;15.77;14.43;;;;;;;;;;5006109;28;20245;-47
2021/04/18 03:45:07;;;;;;;15.93;14.53;;;;;;;;;;5007612;28;20183;-47
2021/04/18 03:47:32;;;;;;;16.00;14.70;;;;;;;;;;5008121;28;20216;-47
2021/04/18 03:49:57;;;;;;;16.57;14.97;;;;;;;;;;5004430;28;20238;-47
2021/04/18 03:52:23;;;;;;;16.47;14.97;;;;;;;;;;5005250;28;20185;-47
2021/04/18 03:54:48;;;;;;;17.93;16.07;;;;;;;;;;5004982;28;20248;-48
2021/04/18 03:57:13;;;;;;;19.42;17.58;;;;;;;;;;5010804;28;20183;-47
2021/04/18 03:59:38;;;;;;;20.73;18.77;;;;;;;;;;5006921;28;20213;-47
2021/04/18 04:02:04;;;;;;;19.80;16.83;;;;;;;;;;5007083;28;20184;-47
2021/04/18 04:04:29;;;;;;;18.90;17.10;;;;;;;;;;5012173;28;20172;-46
2021/04/18 04:06:54;;;;;;;18.88;17.17;;;;;;;;;;5002353;28;20615;-47
2021/04/18 04:09:19;;;;;;;18.98;17.23;;;;;;;;;;5011718;28;20183;-47
2021/04/18 04:11:44;;;;;;;20.30;18.47;;;;;;;;;;5008869;28;20188;-47
2021/04/18 04:14:10;;;;;;;18.35;16.58;;;;;;;;;;5010586;28;20293;-47
2021/04/18 04:16:35;;;;;;;20.10;18.30;;;;;;;;;;5010743;28;20583;-47
2021/04/18 04:19:00;;;;;;;18.98;17.08;;;;;;;;;;5010569;28;20201;-49
2021/04/18 04:21:25;;;;;;;16.70;15.30;;;;;;;;;;5004152;28;20180;-47
2021/04/18 04:23:50;;;;;;;16.42;14.93;;;;;;;;;;5010213;28;20245;-47
2021/04/18 04:26:15;;;;;;;15.82;14.52;;;;;;;;;;5011262;28;20233;-47
2021/04/18 04:28:40;;;;;;;16.98;15.20;;;;;;;;;;5010898;28;20193;-47
2021/04/18 04:31:06;;;;;;;16.33;14.75;;;;;;;;;;5010221;28;20192;-47
2021/04/18 04:33:38;;;;;;;16.63;15.03;;;;;;;;;;5011613;28;20264;-47
2021/04/18 04:36:04;;;;;;;16.57;14.87;;;;;;;;;;5005342;28;20167;-47
2021/04/18 04:38:30;;;;;;;17.40;15.60;;;;;;;;;;5008129;28;20694;-47
2021/04/18 04:40:55;;;;;;;16.97;15.33;;;;;;;;;;5010502;28;20646;-47
2021/04/18 04:43:20;;;;;;;16.87;15.17;;;;;;;;;;5010005;28;20187;-47
2021/04/18 04:45:45;;;;;;;15.87;14.33;;;;;;;;;;5008637;28;20257;-47
2021/04/18 04:48:11;;;;;;;14.60;13.20;;;;;;;;;;5006558;28;20184;-47
2021/04/18 04:50:36;;;;;;;15.80;14.30;;;;;;;;;;5011245;28;20607;-47
2021/04/18 04:53:01;;;;;;;15.85;14.45;;;;;;;;;;5010179;28;20189;-47
2021/04/18 04:55:26;;;;;;;15.83;14.33;;;;;;;;;;5006479;28;20208;-47
2021/04/18 04:57:52;;;;;;;15.03;13.63;;;;;;;;;;5006087;28;20319;-47
2021/04/18 05:00:17;;;;;;;17.27;15.47;;;;;;;;;;5004471;28;20169;-47
2021/04/18 05:02:43;;;;;;;14.27;13.00;;;;;;;;;;5010774;28;20234;-47
2021/04/18 05:05:08;;;;;;;17.05;15.35;;;;;;;;;;5009723;28;20193;-47
2021/04/18 05:07:33;;;;;;;16.20;14.50;;;;;;;;;;5006879;28;20174;-47
2021/04/18 05:09:58;;;;;;;16.42;14.85;;;;;;;;;;5005195;28;20188;-47
2021/04/18 05:12:24;;;;;;;15.00;13.60;;;;;;;;;;5000143;28;20182;-47
2021/04/18 05:14:49;;;;;;;16.20;14.70;;;;;;;;;;4999724;28;20209;-47
2021/04/18 05:17:14;;;;;;;17.03;15.27;;;;;;;;;;4996654;28;20690;-47
2021/04/18 05:19:39;;;;;;;16.53;15.13;;;;;;;;;;4996424;28;20182;-47
2021/04/18 05:22:04;;;;;;;16.90;15.50;;;;;;;;;;5006351;28;20210;-48
2021/04/18 05:24:30;;;;;;;15.97;14.47;;;;;;;;;;5006047;28;20189;-48
2021/04/18 05:26:55;;;;;;;16.60;14.93;;;;;;;;;;5003732;28;20187;-47
2021/04/18 05:29:21;;;;;;;15.27;13.83;;;;;;;;;;4993297;28;20190;-48
2021/04/18 05:31:47;;;;;;;15.87;14.30;;;;;;;;;;5002212;28;20813;-49
2021/04/18 05:34:12;;;;;;;15.20;13.90;;;;;;;;;;5002735;28;20643;-48
2021/04/18 05:36:37;;;;;;;15.23;13.80;;;;;;;;;;5008344;28;20892;-47
2021/04/18 05:39:06;;;;;;;15.73;14.27;;;;;;;;;;5005306;28;20184;-48
2021/04/18 05:41:31;;;;;;;14.93;13.63;;;;;;;;;;5002828;28;20173;-48
2021/04/18 05:43:56;;;;;;;15.27;13.97;;;;;;;;;;4998298;28;20606;-48
2021/04/18 05:46:21;;;;;;;16.75;15.15;;;;;;;;;;5001481;28;20216;-48
2021/04/18 05:48:47;;;;;;;16.27;14.68;;;;;;;;;;5001336;28;20181;-48
2021/04/18 05:51:12;;;;;;;14.35;13.20;;;;;;;;;;5006586;28;20265;-48
2021/04/18 05:53:37;;;;;;;15.50;14.03;;;;;;;;;;5005493;28;20359;-48
2021/04/18 05:56:02;;;;;;;13.93;12.70;;;;;;;;;;4995874;28;20699;-48
2021/04/18 05:58:27;;;;;;;15.30;13.97;;;;;;;;;;5006989;28;20478;-48
2021/04/18 06:00:53;;;;;;;15.10;13.70;;;;;;;;;;4999517;28;21041;-48
2021/04/18 06:03:18;;;;;;;16.15;14.63;;;;;;;;;;5012939;28;20777;-48
2021/04/18 06:05:43;;;;;;;18.10;16.30;;;;;;;;;;5013018;28;20195;-48
2021/04/18 06:08:08;;;;;;;16.63;15.03;;;;;;;;;;5012991;28;20196;-48
2021/04/18 06:10:33;;;;;;;18.23;16.53;;;;;;;;;;5007562;28;20727;-48
2021/04/18 06:12:59;;;;;;;18.88;17.25;;;;;;;;;;5004974;28;20608;-47
2021/04/18 06:15:25;;;;;;;19.20;17.33;;;;;;;;;;5003391;28;20270;-48
2021/04/18 06:17:50;;;;;;;18.80;17.00;;;;;;;;;;5007667;28;20198;-48
2021/04/18 06:20:15;;;;;;;18.47;16.77;;;;;;;;;;5007008;28;20627;-47
2021/04/18 06:22:40;;;;;;;20.60;18.47;;;;;;;;;;5015093;28;20176;-47
2021/04/18 06:25:06;;;;;;;19.87;18.07;;;;;;;;;;5002149;28;20626;-47
2021/04/18 06:27:32;;;;;;;20.03;18.13;;;;;;;;;;5001266;28;20203;-47
2021/04/18 06:29:57;;;;;;;21.03;19.03;;;;;;;;;;4998951;28;21032;-47
2021/04/18 06:32:22;;;;;;;22.33;20.17;;;;;;;;;;5002289;28;20200;-46
2021/04/18 06:34:47;;;;;;;21.00;19.10;;;;;;;;;;4991255;28;20665;-46
2021/04/18 06:37:12;;;;;;;22.10;20.03;;;;;;;;;;5003393;28;20222;-47
2021/04/18 06:39:38;;;;;;;22.95;20.75;;;;;;;;;;5005428;28;20198;-48
2021/04/18 06:42:04;;;;;;;21.15;19.05;;;;;;;;;;5001173;28;20226;-47
2021/04/18 06:44:30;;;;;;;21.97;19.97;;;;;;;;;;4992018;28;20185;-47
2021/04/18 06:46:56;;;;;;;23.60;21.40;;;;;;;;;;5002966;28;20649;-47
2021/04/18 06:49:21;;;;;;;21.87;19.73;;;;;;;;;;4999890;28;20679;-47
2021/04/18 06:51:47;;;;;;;23.73;21.50;;;;;;;;;;5003365;28;21153;-47
2021/04/18 06:54:12;;;;;;;21.87;19.67;;;;;;;;;;5008126;28;20756;-48
2021/04/18 06:56:38;;;;;;;22.70;20.60;;;;;;;;;;4999193;28;20607;-49
2021/04/18 06:59:06;;;;;;;24.43;21.40;;;;;;;;;;5002898;28;20593;-47
2021/04/18 07:01:33;;;;;;;23.70;21.33;;;;;;;;;;4998531;28;20236;-47
2021/04/18 07:04:12;;;;;;;24.73;22.33;;;;;;;;;;5002274;28;21295;-47
2021/04/18 07:06:58;;;;;;;23.10;20.70;;;;;;;;;;5007421;28;21185;-47
2021/04/18 07:09:24;;;;;;;21.03;19.00;;;;;;;;;;4999682;28;20628;-47
2021/04/18 07:11:57;;;;;;;20.93;18.90;;;;;;;;;;5001647;28;21020;-47
2021/04/18 07:14:32;;;;;;;22.30;20.20;;;;;;;;;;5005337;28;20215;-47
2021/04/18 07:17:05;;;;;;;22.63;20.57;;;;;;;;;;5007885;28;20645;-47
2021/04/18 07:19:31;;;;;;;24.70;22.40;;;;;;;;;;5008140;28;20593;-47
2021/04/18 07:21:57;;;;;;;22.70;20.50;;;;;;;;;;5007980;28;20564;-48
2021/04/18 07:24:23;;;;;;;23.10;21.00;;;;;;;;;;4995939;28;20173;-47
2021/04/18 07:26:55;;;;;;;22.07;20.07;;;;;;;;;;5008022;28;21303;-47
2021/04/18 07:29:21;;;;;;;23.40;21.00;;;;;;;;;;5007939;28;20697;-48
2021/04/18 07:31:46;;;;;;;23.70;21.37;;;;;;;;;;5007479;28;20699;-48
2021/04/18 07:34:12;;;;;;;24.30;22.00;;;;;;;;;;5002626;28;20556;-49
2021/04/18 07:36:39;;;;;;;23.73;21.47;;;;;;;;;;4988249;28;20260;-48
2021/04/18 07:39:06;;;;;;;23.47;21.30;;;;;;;;;;4988738;28;20586;-48
2021/04/18 07:41:31;;;;;;;24.73;22.10;;;;;;;;;;5005737;28;20605;-48
2021/04/18 07:43:56;;;;;;;23.50;21.30;;;;;;;;;;5007507;28;20581;-48
2021/04/18 07:46:21;;;;;;;22.00;20.00;;;;;;;;;;5006999;28;20182;-46
2021/04/18 07:48:47;;;;;;;26.23;23.83;;;;;;;;;;5007963;28;20656;-46
2021/04/18 07:51:13;;;;;;;24.00;21.67;;;;;;;;;;5007857;28;20696;-49
2021/04/18 07:53:40;;;;;;;25.90;23.37;;;;;;;;;;5007780;28;20176;-49
2021/04/18 07:56:06;;;;;;;23.60;21.33;;;;;;;;;;5007539;28;20177;-48
2021/04/18 07:58:32;;;;;;;24.77;22.47;;;;;;;;;;5007707;28;20774;-48
2021/04/18 08:00:59;;;;;;;28.70;26.00;;;;;;;;;;5007026;28;20628;-48
2021/04/18 08:03:24;;;;;;;25.77;23.27;;;;;;;;;;5007866;28;20173;-48
2021/04/18 08:05:50;;;;;;;25.08;22.80;;;;;;;;;;5007711;28;20619;-48
2021/04/18 08:08:16;;;;;;;24.90;22.50;;;;;;;;;;5006275;28;20174;-46
2021/04/18 08:10:43;;;;;;;23.87;21.67;;;;;;;;;;5007918;28;20942;-47
2021/04/18 08:13:15;;;;;;;26.10;23.50;;;;;;;;;;4988365;28;20264;-47
2021/04/18 08:15:57;;;;;;;26.20;23.70;;;;;;;;;;4991916;28;21298;-48
2021/04/18 08:18:27;;;;;;;26.17;23.73;;;;;;;;;;5007561;28;20586;-47
2021/04/18 08:20:53;;;;;;;25.67;23.27;;;;;;;;;;5007925;28;20580;-47
2021/04/18 08:23:18;;;;;;;26.47;23.97;;;;;;;;;;5007687;28;20611;-47
2021/04/18 08:25:59;;;;;;;26.63;23.93;;;;;;;;;;5007054;28;20195;-47
2021/04/18 08:28:24;;;;;;;27.53;24.70;;;;;;;;;;4987677;28;20269;-47
2021/04/18 08:31:09;;;;;;;25.93;23.30;;;;;;;;;;4993781;28;20597;-48
2021/04/18 08:33:37;;;;;;;27.63;24.83;;;;;;;;;;5007373;28;20649;-47
2021/04/18 08:36:26;;;;;;;26.40;23.87;;;;;;;;;;5007340;28;21172;-47
2021/04/18 08:39:00;;;;;;;25.00;22.67;;;;;;;;;;4999739;28;20605;-47
2021/04/18 08:41:45;;;;;;;27.57;24.67;;;;;;;;;;5010641;28;20583;-47
2021/04/18 08:44:13;;;;;;;26.97;24.40;;;;;;;;;;5011237;28;20592;-48
2021/04/18 08:46:39;;;;;;;26.93;24.30;;;;;;;;;;5025376;28;20979;-47
2021/04/18 08:49:04;;;;;;;28.35;25.52;;;;;;;;;;5010907;28;20947;-47
2021/04/18 08:51:29;;;;;;;26.93;24.43;;;;;;;;;;5010583;28;20606;-47
2021/04/18 08:53:59;;;;;;;26.83;24.27;;;;;;;;;;5010839;28;20224;-47
2021/04/18 08:56:43;;;;;;;28.37;25.53;;;;;;;;;;5010189;28;20178;-47
2021/04/18 08:59:12;;;;;;;29.67;26.60;;;;;;;;;;5010639;28;20900;-48
2021/04/18 09:01:37;;;;;;;28.53;25.83;;;;;;;;;;5010246;28;20611;-48
2021/04/18 09:04:03;;;;;;;29.87;26.93;;;;;;;;;;5010716;28;20613;-48
2021/04/18 09:06:33;;;;;;;32.37;29.10;;;;;;;;;;5010088;28;20560;-48
2021/04/18 09:08:59;;;;;;;30.37;27.47;;;;;;;;;;5010764;28;20572;-47
2021/04/18 09:11:24;;;;;;;28.20;25.50;;;;;;;;;;5001196;28;20709;-48
2021/04/18 09:13:55;;;;;;;28.70;25.90;;;;;;;;;;4990914;28;20242;-47
2021/04/18 09:16:22;;;;;;;27.90;25.00;;;;;;;;;;5000480;28;20288;-47
2021/04/18 09:18:47;;;;;;;32.30;27.30;;;;;;;;;;5010207;28;21136;-47
2021/04/18 09:21:13;;;;;;;29.40;26.50;;;;;;;;;;5010496;28;20561;-47
2021/04/18 09:23:57;;;;;;;29.20;26.30;;;;;;;;;;5010244;28;20172;-47
2021/04/18 09:26:23;;;;;;;29.77;26.87;;;;;;;;;;5009949;28;20174;-47
2021/04/18 09:29:07;;;;;;;28.47;25.73;;;;;;;;;;5010098;28;20598;-47
2021/04/18 09:31:32;;;;;;;29.60;26.60;;;;;;;;;;5006808;28;20192;-47
2021/04/18 09:34:04;;;;;;;30.37;27.37;;;;;;;;;;4990519;28;20751;-47
2021/04/18 09:36:30;;;;;;;29.33;26.63;;;;;;;;;;4993684;28;20648;-47
2021/04/18 09:38:55;;;;;;;30.47;27.43;;;;;;;;;;5009779;28;20611;-47
2021/04/18 09:41:21;;;;;;;30.33;27.53;;;;;;;;;;5010159;28;20180;-47
2021/04/18 09:43:53;;;;;;;29.07;26.17;;;;;;;;;;5009719;28;20530;-47
2021/04/18 09:46:18;;;;;;;32.30;29.07;;;;;;;;;;5010019;28;20567;-47
2021/04/18 09:48:55;;;;;;;31.50;28.42;;;;;;;;;;5007863;28;20600;-47
2021/04/18 09:51:20;;;;;;;31.87;28.77;;;;;;;;;;5007964;28;20165;-47
2021/04/18 09:53:58;;;;;;;33.28;29.75;;;;;;;;;;5009223;28;20600;-47
2021/04/18 09:56:24;;;;;;;32.37;29.17;;;;;;;;;;5009153;28;20699;-47
2021/04/18 09:58:49;;;;;;;30.80;27.80;;;;;;;;;;5009565;28;20576;-47
2021/04/18 10:01:27;;;;;;;31.38;28.30;;;;;;;;;;5008415;28;20169;-47
2021/04/18 10:03:52;;;;;;;32.47;29.33;;;;;;;;;;5008836;28;20287;-47
2021/04/18 10:06:17;;;;;;;32.10;29.00;;;;;;;;;;5009591;28;20666;-47
2021/04/18 10:08:52;;;;;;;32.43;29.30;;;;;;;;;;5009254;28;20192;-47
2021/04/18 10:11:18;;;;;;;34.47;30.87;;;;;;;;;;5009306;28;20180;-47
2021/04/18 10:13:54;;;;;;;32.23;28.93;;;;;;;;;;5008578;28;20671;-47
2021/04/18 10:16:21;;;;;;;32.60;29.50;;;;;;;;;;5009099;28;20666;-47
2021/04/18 10:19:03;;;;;;;33.00;29.50;;;;;;;;;;5008792;28;20626;-47
2021/04/18 10:21:28;;;;;;;33.47;30.07;;;;;;;;;;5008871;28;20653;-47
2021/04/18 10:23:54;;;;;;;33.70;30.30;;;;;;;;;;5009080;28;20587;-47
2021/04/18 10:26:20;;;;;;;33.10;29.63;;;;;;;;;;5009570;28;20184;-47
2021/04/18 10:28:45;;;;;;;34.67;31.17;;;;;;;;;;5008404;28;20549;-47
2021/04/18 10:31:11;;;;;;;32.60;29.40;;;;;;;;;;5008749;28;20603;-48
2021/04/18 10:33:36;;;;;;;32.70;29.20;;;;;;;;;;5009045;28;20172;-47
2021/04/18 10:36:02;;;;;;;30.98;27.98;;;;;;;;;;5009123;28;20560;-46
2021/04/18 10:38:27;;;;;;;31.00;28.07;;;;;;;;;;5008863;28;20222;-47
2021/04/18 10:40:52;;;;;;;31.35;28.27;;;;;;;;;;5008716;28;20171;-47
2021/04/18 10:43:17;;;;;;;30.40;27.40;;;;;;;;;;5008902;28;20178;-47
2021/04/18 10:45:43;;;;;;;28.30;25.53;;;;;;;;;;5008146;28;20178;-47
2021/04/18 10:48:08;;;;;;;29.73;26.80;;;;;;;;;;5008743;28;20259;-47
2021/04/18 10:50:33;;;;;;;30.10;27.30;;;;;;;;;;5009145;28;20552;-47
2021/04/18 10:52:59;;;;;;;28.43;25.50;;;;;;;;;;5023570;28;20205;-47
2021/04/18 10:55:24;;;;;;;27.33;24.80;;;;;;;;;;5008680;28;20209;-47
2021/04/18 10:57:49;;;;;;;27.65;24.83;;;;;;;;;;5008851;28;20703;-47
2021/04/18 11:00:14;;;;;;;27.73;25.10;;;;;;;;;;5007782;28;20242;-47
2021/04/18 11:02:39;;;;;;;28.17;25.57;;;;;;;;;;5007856;28;20191;-48
2021/04/18 11:05:05;;;;;;;26.43;23.93;;;;;;;;;;5008941;28;20182;-48
2021/04/18 11:07:31;;;;;;;27.70;25.07;;;;;;;;;;5008466;28;20208;-47
2021/04/18 11:09:56;;;;;;;27.30;24.77;;;;;;;;;;5007120;28;20177;-47
2021/04/18 11:12:21;;;;;;;26.40;24.00;;;;;;;;;;5007778;28;20267;-46
2021/04/18 11:14:47;;;;;;;23.00;20.90;;;;;;;;;;5008199;28;20255;-46
2021/04/18 11:17:13;;;;;;;23.60;21.50;;;;;;;;;;5008005;28;20399;-47
2021/04/18 11:19:38;;;;;;;25.03;22.73;;;;;;;;;;5008160;28;20688;-46
2021/04/18 11:22:03;;;;;;;22.50;20.40;;;;;;;;;;5007795;28;20185;-48
2021/04/18 11:24:29;;;;;;;23.10;21.10;;;;;;;;;;5008029;28;20707;-46
2021/04/18 11:26:54;;;;;;;22.27;20.27;;;;;;;;;;5008317;28;20188;-47
2021/04/18 11:29:19;;;;;;;23.57;21.47;;;;;;;;;;5008487;28;20185;-47
2021/04/18 11:31:44;;;;;;;23.47;21.27;;;;;;;;;;5007383;28;20808;-47
2021/04/18 11:34:09;;;;;;;22.40;20.43;;;;;;;;;;5007029;28;20205;-47
2021/04/18 11:36:35;;;;;;;20.77;19.07;;;;;;;;;;5008338;28;20573;-48
2021/04/18 11:39:00;;;;;;;22.03;20.13;;;;;;;;;;5008115;28;20182;-46
2021/04/18 11:41:25;;;;;;;21.70;19.90;;;;;;;;;;5007548;28;20720;-48
2021/04/18 11:43:50;;;;;;;22.08;20.17;;;;;;;;;;5007979;28;20169;-47
2021/04/18 11:46:15;;;;;;;23.00;21.00;;;;;;;;;;5006606;28;20166;-47
2021/04/18 11:48:40;;;;;;;21.42;19.50;;;;;;;;;;5007443;28;20239;-47
2021/04/18 11:51:06;;;;;;;21.30;19.60;;;;;;;;;;5008398;28;20172;-46
2021/04/18 11:53:32;;;;;;;24.63;22.43;;;;;;;;;;5008198;28;20173;-47
2021/04/18 11:55:57;;;;;;;23.67;21.67;;;;;;;;;;5008015;28;20627;-47
2021/04/18 11:58:22;;;;;;;23.83;21.83;;;;;;;;;;5006437;28;20177;-48
2021/04/18 12:00:47;;;;;;;21.67;19.70;;;;;;;;;;5006862;28;20180;-46
2021/04/18 12:03:17;;;;;;;23.00;20.90;;;;;;;;;;5007959;28;20432;-46
2021/04/18 12:05:42;;;;;;;19.30;17.60;;;;;;;;;;5007827;28;20181;-47
2021/04/18 12:08:07;;;;;;;20.03;18.30;;;;;;;;;;5007285;28;20584;-47
2021/04/18 12:10:32;;;;;;;18.45;16.83;;;;;;;;;;5007195;28;20213;-48
2021/04/18 12:12:57;;;;;;;18.40;16.80;;;;;;;;;;5007573;28;20192;-47
2021/04/18 12:15:22;;;;;;;19.73;18.03;;;;;;;;;;5011301;28;20605;-48
2021/04/18 12:17:47;;;;;;;19.40;17.70;;;;;;;;;;5010344;28;20232;-47
2021/04/18 12:20:13;;;;;;;15.88;14.48;;;;;;;;;;5010427;28;20173;-48
2021/04/18 12:22:39;;;;;;;20.90;19.17;;;;;;;;;;5005086;28;20683;-47
2021/04/18 12:25:05;;;;;;;19.23;17.53;;;;;;;;;;5001766;28;20543;-47
2021/04/18 12:27:33;;;;;;;14.40;13.10;;;;;;;;;;4998026;28;20605;-47
2021/04/18 12:29:59;;;;;;;14.10;13.00;;;;;;;;;;4988169;28;20684;-47
2021/04/18 12:32:24;;;;;;;14.40;13.20;;;;;;;;;;5005465;28;20715;-47
2021/04/18 12:34:51;;;;;;;16.13;14.63;;;;;;;;;;5003206;28;20552;-47
2021/04/18 12:37:17;;;;;;;16.90;15.40;;;;;;;;;;4995860;28;20165;-48
2021/04/18 12:39:43;;;;;;;15.23;13.90;;;;;;;;;;5007350;28;20604;-48
2021/04/18 12:42:08;;;;;;;13.80;12.53;;;;;;;;;;5008383;28;20261;-47
2021/04/18 12:44:33;;;;;;;12.30;11.30;;;;;;;;;;5005857;28;20540;-48
2021/04/18 12:47:00;;;;;;;13.93;12.73;;;;;;;;;;5008407;28;20223;-47
2021/04/18 12:49:25;;;;;;;12.80;11.70;;;;;;;;;;4993852;28;20182;-49
2021/04/18 12:51:50;;;;;;;10.83;9.93;;;;;;;;;;4989098;28;20608;-49
2021/04/18 12:54:15;;;;;;;10.23;9.43;;;;;;;;;;4997920;28;20977;-48
2021/04/18 12:56:40;;;;;;;9.43;8.73;;;;;;;;;;4994721;28;20186;-47
2021/04/18 12:59:06;;;;;;;10.17;9.37;;;;;;;;;;5002637;28;20199;-47
2021/04/18 13:01:31;;;;;;;7.65;7.00;;;;;;;;;;4996112;28;20181;-49
2021/04/18 13:03:56;;;;;;;6.30;5.82;;;;;;;;;;4995568;28;20240;-48
2021/04/18 13:06:21;;;;;;;7.63;7.03;;;;;;;;;;5002750;28;20441;-47
2021/04/18 13:08:46;;;;;;;7.83;7.23;;;;;;;;;;4999644;28;20181;-47
2021/04/18 13:11:12;;;;;;;8.00;7.40;;;;;;;;;;5000526;28;20186;-48
2021/04/18 13:13:37;;;;;;;7.60;7.00;;;;;;;;;;5004966;28;20197;-47
2021/04/18 13:16:02;;;;;;;8.17;7.57;;;;;;;;;;5004180;28;20224;-49
2021/04/18 13:18:30;;;;;;;8.27;7.57;;;;;;;;;;5003120;28;20174;-49
2021/04/18 13:20:55;;;;;;;7.80;7.10;;;;;;;;;;5005902;28;20188;-47
2021/04/18 13:23:20;;;;;;;8.67;7.97;;;;;;;;;;5007142;28;20584;-48
2021/04/18 13:25:46;;;;;;;8.25;7.60;;;;;;;;;;5005449;28;20278;-49
2021/04/18 13:28:11;;;;;;;6.80;6.30;;;;;;;;;;5002258;28;20192;-47
2021/04/18 13:30:36;;;;;;;6.83;6.33;;;;;;;;;;5003130;28;20635;-48
2021/04/18 13:33:01;;;;;;;8.03;7.33;;;;;;;;;;5006423;28;20306;-49
2021/04/18 13:35:27;;;;;;;7.57;6.97;;;;;;;;;;5004852;28;20571;-49
2021/04/18 13:37:52;;;;;;;8.07;7.47;;;;;;;;;;5006783;28;20548;-48
2021/04/18 13:40:17;;;;;;;7.50;7.00;;;;;;;;;;5004487;28;20178;-49
2021/04/18 13:42:43;;;;;;;8.50;7.80;;;;;;;;;;5005963;28;20174;-48
2021/04/18 13:45:09;;;;;;;7.10;6.60;;;;;;;;;;5006361;28;20327;-49
2021/04/18 13:47:35;;;;;;;7.00;6.50;;;;;;;;;;5006377;28;20175;-48
2021/04/18 13:50:00;;;;;;;4.77;4.47;;;;;;;;;;5002717;28;20601;-48
2021/04/18 13:52:25;;;;;;;4.50;4.20;;;;;;;;;;5004598;28;20204;-48
2021/04/18 13:54:50;;;;;;;4.77;4.47;;;;;;;;;;5003121;28;20284;-49
2021/04/18 13:57:16;;;;;;;4.13;3.90;;;;;;;;;;5005192;28;20830;-48
2021/04/18 13:59:41;;;;;;;4.40;4.10;;;;;;;;;;5005559;28;20177;-48
2021/04/18 14:02:07;;;;;;;4.20;3.90;;;;;;;;;;5001259;28;20191;-48
2021/04/18 14:04:32;;;;;;;5.43;4.93;;;;;;;;;;5003558;28;20227;-48
2021/04/18 14:06:57;;;;;;;5.10;4.70;;;;;;;;;;5004644;28;20177;-47
2021/04/18 14:09:22;;;;;;;5.37;4.97;;;;;;;;;;5001617;28;20722;-47
2021/04/18 14:11:50;;;;;;;6.63;6.10;;;;;;;;;;4997421;28;20188;-49
2021/04/18 14:14:15;;;;;;;7.23;6.73;;;;;;;;;;5001239;28;20232;-48